createdAt,value
2022-09-10T00:01:50.958Z,11.20
2022-09-10T00:04:17.939Z,13.10
2022-09-10T00:06:44.917Z,16.52
2022-09-10T00:09:12.789Z,10.38
2022-09-10T00:11:41.100Z,15.98
2022-09-10T00:14:15.109Z,11.70
2022-09-10T00:16:42.136Z,11.30
2022-09-10T00:19:09.098Z,14.10
2022-09-10T00:21:35.933Z,11.65
2022-09-10T00:24:05.152Z,12.27
2022-09-10T00:26:38.006Z,10.98
2022-09-10T00:29:06.962Z,11.90
2022-09-10T00:31:34.360Z,15.93
2022-09-10T00:34:02.323Z,15.27
2022-09-10T00:36:40.186Z,13.35
2022-09-10T00:39:10.030Z,16.42
2022-09-10T00:41:39.183Z,15.00
2022-09-10T00:44:27.853Z,12.95
2022-09-10T00:46:55.751Z,12.77
2022-09-10T00:49:35.908Z,13.65
2022-09-10T00:52:03.499Z,12.77
2022-09-10T00:54:32.051Z,15.18
2022-09-10T00:57:05.550Z,12.60
2022-09-10T00:59:33.138Z,13.25
2022-09-10T01:01:59.941Z,12.27
2022-09-10T01:04:27.408Z,15.55
2022-09-10T01:06:55.687Z,13.00
2022-09-10T01:09:24.116Z,14.20
2022-09-10T01:12:12.282Z,14.88
2022-09-10T01:14:51.626Z,15.60
2022-09-10T01:17:44.967Z,14.10
2022-09-10T01:20:29.381Z,15.60
2022-09-10T01:23:33.681Z,17.60
2022-09-10T01:26:38.898Z,18.92
2022-09-10T01:29:24.616Z,19.55
2022-09-10T01:31:59.785Z,16.77
2022-09-10T01:34:29.799Z,18.42
2022-09-10T01:37:03.635Z,16.98
2022-09-10T01:39:31.281Z,17.40
2022-09-10T01:41:58.792Z,23.00
2022-09-10T01:44:42.109Z,17.60
2022-09-10T01:47:36.915Z,16.15
2022-09-10T01:50:39.323Z,17.73
2022-09-10T01:53:30.881Z,17.50
2022-09-10T01:56:04.600Z,17.35
2022-09-10T01:58:41.596Z,19.10
2022-09-10T02:01:33.250Z,20.10
2022-09-10T02:04:08.527Z,17.08
2022-09-10T02:06:38.786Z,23.85
2022-09-10T02:11:44.909Z,18.20
2022-09-10T02:14:14.128Z,21.08
2022-09-10T02:16:46.989Z,22.48
2022-09-10T02:19:15.442Z,20.75
2022-09-10T02:21:42.202Z,24.45
2022-09-10T02:24:12.040Z,20.02
2022-09-10T02:26:43.205Z,22.80
2022-09-10T02:29:13.704Z,18.52
2022-09-10T02:31:41.189Z,22.80
2022-09-10T02:34:08.409Z,19.05
2022-09-10T02:36:35.762Z,24.23
2022-09-10T02:39:04.593Z,24.40
2022-09-10T02:41:34.101Z,29.63
2022-09-10T02:44:02.055Z,25.88
2022-09-10T02:46:28.807Z,20.45
2022-09-10T02:48:56.221Z,19.65
2022-09-10T02:51:23.560Z,27.27
2022-09-10T02:53:50.461Z,22.45
2022-09-10T02:56:19.481Z,24.45
2022-09-10T02:58:46.277Z,22.60
2022-09-10T03:01:15.681Z,23.75
2022-09-10T03:03:42.823Z,21.37
2022-09-10T03:06:10.165Z,23.38
2022-09-10T03:08:37.470Z,24.10
2022-09-10T03:11:04.838Z,23.83
2022-09-10T03:13:31.487Z,22.95
2022-09-10T03:15:58.814Z,23.83
2022-09-10T03:18:27.977Z,25.38
2022-09-10T03:20:54.607Z,24.58
2022-09-10T03:23:21.295Z,24.45
2022-09-10T03:25:49.974Z,23.27
2022-09-10T03:28:16.829Z,25.38
2022-09-10T03:30:43.504Z,23.05
2022-09-10T03:33:11.713Z,25.60
2022-09-10T03:35:38.715Z,25.55
2022-09-10T03:38:05.834Z,24.55
2022-09-10T03:40:32.941Z,21.75
2022-09-10T03:43:00.953Z,24.05
2022-09-10T03:45:28.549Z,26.63
2022-09-10T03:47:55.300Z,25.42
2022-09-10T03:50:22.097Z,24.08
2022-09-10T03:52:48.787Z,22.52
2022-09-10T03:55:15.800Z,25.08
2022-09-10T03:57:42.509Z,23.52
2022-09-10T04:00:12.085Z,21.98
2022-09-10T04:02:38.724Z,23.25
2022-09-10T04:05:06.792Z,22.95
2022-09-10T04:07:33.573Z,21.25
2022-09-10T04:10:00.503Z,24.23
2022-09-10T04:12:27.146Z,23.38
2022-09-10T04:14:53.819Z,23.88
2022-09-10T04:17:20.882Z,22.52
2022-09-10T04:19:47.562Z,22.67
2022-09-10T04:22:14.205Z,21.08
2022-09-10T04:24:40.837Z,21.60
2022-09-10T04:27:07.524Z,22.33
2022-09-10T04:29:34.177Z,20.80
2022-09-10T04:32:00.824Z,20.70
2022-09-10T04:34:27.494Z,23.80
2022-09-10T04:36:54.201Z,20.55
2022-09-10T04:39:20.841Z,20.92
2022-09-10T04:41:47.464Z,21.23
2022-09-10T04:44:14.091Z,19.70
2022-09-10T04:46:42.236Z,19.10
2022-09-10T04:49:09.751Z,18.27
2022-09-10T04:51:36.440Z,20.77
2022-09-10T04:54:03.173Z,21.33
2022-09-10T04:56:30.883Z,18.42
2022-09-10T04:58:57.524Z,19.63
2022-09-10T05:01:24.255Z,18.92
2022-09-10T05:03:50.890Z,22.05
2022-09-10T05:06:17.542Z,20.67
2022-09-10T05:08:44.146Z,20.35
2022-09-10T05:11:11.421Z,19.80
2022-09-10T05:13:38.045Z,21.55
2022-09-10T05:16:04.824Z,21.77
2022-09-10T05:18:31.576Z,19.70
2022-09-10T05:20:58.386Z,20.40
2022-09-10T05:23:25.590Z,22.15
2022-09-10T05:25:52.208Z,20.58
2022-09-10T05:28:20.791Z,20.33
2022-09-10T05:30:51.567Z,20.77
2022-09-10T05:33:18.660Z,19.63
2022-09-10T05:35:48.063Z,22.92
2022-09-10T05:38:14.701Z,21.53
2022-09-10T05:40:42.993Z,25.73
2022-09-10T05:43:11.699Z,22.02
2022-09-10T05:45:38.606Z,22.90
2022-09-10T05:48:05.404Z,21.88
2022-09-10T05:50:32.177Z,23.38
2022-09-10T05:52:58.795Z,22.10
2022-09-10T05:55:25.481Z,24.20
2022-09-10T05:57:52.124Z,25.08
2022-09-10T06:00:19.312Z,22.63
2022-09-10T06:02:46.046Z,25.42
2022-09-10T06:05:12.740Z,22.02
2022-09-10T06:07:39.873Z,23.25
2022-09-10T06:10:07.070Z,22.65
2022-09-10T06:12:34.177Z,27.38
2022-09-10T06:15:00.801Z,23.70
2022-09-10T06:17:27.436Z,26.30
2022-09-10T06:19:54.032Z,24.63
2022-09-10T06:22:20.677Z,25.98
2022-09-10T06:24:49.231Z,23.88
2022-09-10T06:27:17.008Z,24.50
2022-09-10T06:29:43.681Z,25.13
2022-09-10T06:32:10.359Z,23.45
2022-09-10T06:34:36.969Z,22.10
2022-09-10T06:37:06.065Z,22.17
2022-09-10T06:39:32.792Z,23.88
2022-09-10T06:41:59.806Z,23.88
2022-09-10T06:44:26.396Z,20.70
2022-09-10T06:47:32.442Z,18.65
2022-09-10T06:49:41.148Z,21.50
2022-09-10T06:52:07.779Z,25.30
2022-09-10T06:54:34.464Z,19.80
2022-09-10T06:57:01.404Z,24.98
2022-09-10T06:59:28.050Z,18.27
2022-09-10T07:01:55.222Z,22.45
2022-09-10T07:04:21.902Z,21.55
2022-09-10T07:06:48.779Z,21.98
2022-09-10T07:09:15.695Z,19.02
2022-09-10T07:11:42.354Z,21.00
2022-09-10T07:14:13.792Z,23.33
2022-09-10T07:16:41.502Z,21.25
2022-09-10T07:19:13.340Z,24.40
2022-09-10T07:21:40.034Z,23.20
2022-09-10T07:24:06.959Z,20.20
2022-09-10T07:26:33.640Z,22.05
2022-09-10T07:29:00.319Z,21.60
2022-09-10T07:31:28.767Z,21.05
2022-09-10T07:33:59.001Z,19.85
2022-09-10T07:38:54.242Z,18.33
2022-09-10T07:41:21.446Z,19.45
2022-09-10T07:43:49.466Z,16.92
2022-09-10T07:46:20.672Z,22.35
2022-09-10T07:48:58.278Z,19.17
2022-09-10T07:51:26.767Z,20.77
2022-09-10T07:53:58.546Z,19.10
2022-09-10T07:56:25.308Z,18.87
2022-09-10T07:58:52.490Z,17.60
2022-09-10T08:01:19.735Z,19.58
2022-09-10T08:03:47.099Z,17.63
2022-09-10T08:06:14.590Z,16.20
2022-09-10T08:08:42.675Z,17.42
2022-09-10T08:11:12.712Z,15.68
2022-09-10T08:13:47.318Z,15.95
2022-09-10T08:16:19.945Z,14.57
2022-09-10T08:18:48.134Z,16.23
2022-09-10T08:21:16.480Z,17.50
2022-09-10T08:23:48.492Z,16.55
2022-09-10T08:26:15.145Z,17.27
2022-09-10T08:28:43.176Z,13.07
2022-09-10T08:31:12.330Z,13.38
2022-09-10T08:33:39.751Z,13.43
2022-09-10T08:36:10.395Z,9.40
2022-09-10T08:38:39.848Z,11.90
2022-09-10T08:41:25.434Z,12.38
2022-09-10T08:43:59.881Z,14.98
2022-09-10T08:46:30.390Z,15.43
2022-09-10T08:49:26.148Z,14.68
2022-09-10T08:52:21.347Z,11.30
2022-09-10T08:55:19.154Z,12.40
2022-09-10T08:58:04.725Z,13.32
2022-09-10T09:00:34.096Z,12.55
2022-09-10T09:03:09.735Z,10.67
2022-09-10T09:05:55.546Z,11.13
2022-09-10T09:08:29.056Z,10.48
2022-09-10T09:11:29.176Z,16.10
2022-09-10T09:14:14.927Z,16.13
2022-09-10T09:16:47.370Z,14.02
2022-09-10T09:19:34.370Z,9.20
2022-09-10T09:22:27.434Z,10.52
2022-09-10T09:25:00.710Z,9.77
2022-09-10T09:27:33.558Z,10.20
2022-09-10T09:30:04.489Z,10.20
2022-09-10T09:32:35.270Z,8.70
2022-09-10T09:35:23.808Z,12.18
2022-09-10T09:38:10.837Z,13.00
2022-09-10T09:40:50.283Z,8.68
2022-09-10T09:43:32.428Z,11.63
2022-09-10T09:45:59.922Z,9.90
2022-09-10T09:48:37.996Z,10.65
2022-09-10T09:51:07.315Z,7.82
2022-09-10T09:53:34.144Z,8.17
2022-09-10T09:56:03.460Z,8.50
2022-09-10T09:58:33.705Z,6.97
2022-09-10T10:03:48.448Z,6.85
2022-09-10T10:06:16.315Z,7.65
2022-09-10T10:08:46.303Z,7.18
2022-09-10T10:11:18.022Z,4.93
2022-09-10T10:13:46.615Z,7.22
2022-09-10T10:16:26.763Z,6.93
2022-09-10T10:18:53.580Z,7.55
2022-09-10T10:21:31.422Z,7.70
2022-09-10T10:23:58.329Z,9.63
2022-09-10T10:26:32.478Z,10.18
2022-09-10T10:29:17.075Z,7.55
2022-09-10T10:31:46.489Z,8.05
2022-09-10T10:34:19.329Z,7.65
2022-09-10T10:37:33.335Z,8.00
2022-09-10T10:40:30.428Z,9.88
2022-09-10T10:43:24.576Z,8.15
2022-09-10T10:46:18.370Z,7.88
2022-09-10T10:48:57.879Z,11.35
2022-09-10T10:51:42.359Z,11.32
2022-09-10T10:54:41.359Z,11.30
2022-09-10T10:57:44.609Z,11.88
2022-09-10T11:00:16.823Z,12.02
2022-09-10T11:03:06.658Z,13.73
2022-09-10T11:05:38.545Z,13.07
2022-09-10T11:08:15.052Z,11.98
2022-09-10T11:11:02.710Z,12.70
2022-09-10T11:13:35.865Z,14.52
2022-09-10T11:16:05.754Z,13.23
2022-09-10T11:18:47.172Z,12.80
2022-09-10T11:21:27.396Z,13.05
2022-09-10T11:26:58.185Z,11.13
2022-09-10T11:29:33.493Z,10.48
2022-09-10T11:32:23.417Z,10.05
2022-09-10T11:35:16.886Z,8.73
2022-09-10T11:38:24.839Z,9.13
2022-09-10T11:41:04.772Z,9.02
2022-09-10T11:44:04.416Z,7.50
2022-09-10T11:46:37.912Z,8.65
2022-09-10T11:49:26.384Z,7.82
2022-09-10T11:51:53.224Z,7.88
2022-09-10T11:54:27.477Z,7.22
2022-09-10T11:57:01.323Z,7.15
2022-09-10T11:59:57.599Z,8.55
2022-09-10T12:02:39.470Z,6.28
2022-09-10T12:05:25.762Z,5.30
2022-09-10T12:08:34.574Z,5.68
2022-09-10T12:11:41.812Z,7.30
2022-09-10T12:14:15.484Z,6.15
2022-09-10T12:16:54.228Z,6.03
2022-09-10T12:19:30.075Z,7.85
2022-09-10T12:22:20.359Z,6.85
2022-09-10T12:27:43.726Z,6.55
2022-09-10T12:30:28.326Z,6.13
2022-09-10T12:33:00.587Z,6.25
2022-09-10T12:35:34.261Z,7.38
2022-09-10T12:38:39.910Z,7.07
2022-09-10T12:41:12.238Z,6.35
2022-09-10T12:43:39.025Z,7.18
2022-09-10T12:46:14.414Z,6.60
2022-09-10T12:48:47.472Z,5.60
2022-09-10T12:51:16.962Z,7.22
2022-09-10T12:54:01.979Z,6.75
2022-09-10T12:56:57.449Z,8.52
2022-09-10T12:59:30.151Z,8.52
2022-09-10T13:01:57.715Z,6.88
2022-09-10T13:04:34.951Z,6.25
2022-09-10T13:07:19.749Z,8.57
2022-09-10T13:09:56.340Z,6.13
2022-09-10T13:12:25.815Z,8.38
2022-09-10T13:14:54.894Z,6.82
2022-09-10T13:17:51.358Z,7.75
2022-09-10T13:20:20.991Z,7.70
2022-09-10T13:23:04.428Z,6.53
2022-09-10T13:25:37.485Z,7.05
2022-09-10T13:28:30.178Z,6.55
2022-09-10T13:31:08.707Z,7.78
2022-09-10T13:33:51.824Z,6.10
2022-09-10T13:36:58.748Z,6.47
2022-09-10T13:39:34.379Z,6.95
2022-09-10T13:42:06.930Z,6.68
2022-09-10T13:44:45.316Z,7.22
2022-09-10T13:47:19.095Z,6.80
2022-09-10T13:49:56.394Z,6.50
2022-09-10T13:52:30.963Z,6.45
2022-09-10T13:54:59.528Z,6.00
2022-09-10T13:57:31.204Z,5.80
2022-09-10T14:00:14.476Z,4.97
2022-09-10T14:02:47.528Z,5.63
2022-09-10T14:05:33.857Z,5.03
2022-09-10T14:08:29.502Z,9.23
2022-09-10T14:11:14.415Z,6.13
2022-09-10T14:13:46.881Z,5.47
2022-09-10T14:16:20.676Z,7.65
2022-09-10T14:18:52.304Z,5.32
2022-09-10T14:21:26.820Z,6.30
2022-09-10T14:23:55.502Z,6.15
2022-09-10T14:26:26.457Z,6.85
2022-09-10T14:28:56.360Z,6.72
2022-09-10T14:31:36.713Z,8.98
2022-09-10T14:34:36.216Z,7.25
2022-09-10T14:37:38.085Z,6.20
2022-09-10T14:40:18.461Z,8.07
2022-09-10T14:42:49.742Z,5.65
2022-09-10T14:45:42.757Z,7.07
2022-09-10T14:48:33.183Z,6.32
2022-09-10T14:51:10.941Z,5.30
2022-09-10T14:53:38.248Z,4.78
2022-09-10T14:56:10.951Z,6.70
2022-09-10T14:58:37.644Z,7.93
2022-09-10T15:01:04.622Z,6.20
2022-09-10T15:03:31.274Z,6.28
2022-09-10T15:05:57.942Z,4.45
2022-09-10T15:08:24.826Z,4.32
2022-09-10T15:10:51.470Z,5.53
2022-09-10T15:13:18.766Z,5.97
2022-09-10T15:15:48.756Z,5.60
2022-09-10T15:18:17.223Z,6.65
2022-09-10T15:20:43.878Z,5.47
2022-09-10T15:23:11.353Z,4.88
2022-09-10T15:25:43.443Z,4.57
2022-09-10T15:28:10.129Z,4.45
2022-09-10T15:30:36.951Z,6.15
2022-09-10T15:33:05.125Z,5.72
2022-09-10T15:35:32.136Z,4.32
2022-09-10T15:38:01.627Z,5.25
2022-09-10T15:40:28.321Z,4.45
2022-09-10T15:42:54.982Z,4.43
2022-09-10T15:45:21.666Z,4.88
2022-09-10T15:47:48.363Z,5.65
2022-09-10T15:50:16.067Z,5.75
2022-09-10T15:52:44.948Z,4.65
2022-09-10T15:55:12.399Z,5.18
2022-09-10T15:57:40.329Z,4.97
2022-09-10T16:00:08.001Z,5.60
2022-09-10T16:02:34.791Z,4.45
2022-09-10T16:05:01.489Z,3.92
2022-09-10T16:07:29.357Z,4.60
2022-09-10T16:09:57.672Z,4.15
2022-09-10T16:12:27.299Z,3.47
2022-09-10T16:14:54.037Z,4.88
2022-09-10T16:17:20.807Z,4.28
2022-09-10T16:19:47.694Z,5.05
2022-09-10T16:22:17.543Z,4.30
2022-09-10T16:24:47.136Z,5.18
2022-09-10T16:27:13.824Z,4.50
2022-09-10T16:29:43.505Z,4.40
2022-09-10T16:32:13.311Z,4.25
2022-09-10T16:34:40.153Z,5.20
2022-09-10T16:37:07.032Z,4.78
2022-09-10T16:39:33.766Z,3.53
2022-09-10T16:42:00.472Z,5.05
2022-09-10T16:44:28.428Z,4.80
2022-09-10T16:46:57.497Z,4.63
2022-09-10T16:49:24.205Z,5.90
2022-09-10T16:51:50.940Z,3.85
2022-09-10T16:54:21.007Z,6.32
2022-09-10T16:56:48.738Z,4.22
2022-09-10T16:59:20.680Z,5.22
2022-09-10T17:01:48.445Z,4.35
2022-09-10T17:04:24.672Z,4.28
2022-09-10T17:06:55.322Z,5.63
2022-09-10T17:09:22.619Z,4.35
2022-09-10T17:11:49.385Z,3.78
2022-09-10T17:14:16.017Z,5.70
2022-09-10T17:16:43.567Z,6.05
2022-09-10T17:19:16.741Z,3.63
2022-09-10T17:21:48.005Z,4.57
2022-09-10T17:24:14.784Z,5.47
2022-09-10T17:26:41.975Z,3.35
2022-09-10T17:29:20.452Z,6.10
2022-09-10T17:31:47.594Z,8.00
2022-09-10T17:34:15.600Z,3.67
2022-09-10T17:36:45.232Z,6.22
2022-09-10T17:39:12.882Z,3.55
2022-09-10T17:41:40.034Z,4.22
2022-09-10T17:44:07.905Z,5.40
2022-09-10T17:46:36.152Z,5.65
2022-09-10T17:49:03.695Z,5.72
2022-09-10T17:51:33.607Z,5.82
2022-09-10T17:54:02.947Z,5.18
2022-09-10T17:56:29.910Z,5.55
2022-09-10T17:59:04.186Z,6.10
2022-09-10T18:01:33.713Z,7.25
2022-09-10T18:04:00.545Z,7.22
2022-09-10T18:06:29.021Z,10.02
2022-09-10T18:09:00.614Z,9.25
2022-09-10T18:11:31.453Z,10.23
2022-09-10T18:13:59.192Z,9.90
2022-09-10T18:16:28.610Z,12.35
2022-09-10T18:18:59.324Z,8.75
2022-09-10T18:21:31.713Z,8.65
2022-09-10T18:24:05.153Z,9.50
2022-09-10T18:26:34.710Z,8.88
2022-09-10T18:29:04.264Z,7.93
2022-09-10T18:31:34.381Z,6.97
2022-09-10T18:36:31.503Z,6.30
2022-09-10T18:41:27.825Z,6.45
2022-09-10T18:43:57.651Z,6.47
2022-09-10T18:46:26.635Z,7.00
2022-09-10T18:48:53.713Z,6.28
2022-09-10T18:51:22.767Z,6.80
2022-09-10T18:53:53.608Z,5.75
2022-09-10T18:56:23.280Z,10.10
2022-09-10T18:58:50.814Z,6.40
2022-09-10T19:01:18.691Z,7.30
2022-09-10T19:03:47.508Z,5.65
2022-09-10T19:06:19.747Z,7.70
2022-09-10T19:08:57.700Z,7.97
2022-09-10T19:11:27.719Z,6.40
2022-09-10T19:13:56.621Z,7.22
2022-09-10T19:16:27.425Z,9.95
2022-09-10T19:18:56.377Z,10.38
2022-09-10T19:21:24.715Z,7.40
2022-09-10T19:23:55.182Z,7.72
2022-09-10T19:26:25.299Z,7.32
2022-09-10T19:28:52.321Z,7.00
2022-09-10T19:31:20.693Z,8.70
2022-09-10T19:33:48.033Z,8.95
2022-09-10T19:36:17.703Z,10.30
2022-09-10T19:38:46.046Z,8.05
2022-09-10T19:41:18.773Z,8.95
2022-09-10T19:43:50.164Z,8.02
2022-09-10T19:46:18.853Z,6.88
2022-09-10T19:48:46.718Z,8.77
2022-09-10T19:51:20.053Z,8.52
2022-09-10T19:53:48.040Z,11.57
2022-09-10T19:56:21.220Z,8.70
2022-09-10T19:58:49.874Z,9.50
2022-09-10T20:01:46.182Z,10.10
2022-09-10T20:04:13.993Z,9.75
2022-09-10T20:06:42.426Z,8.65
2022-09-10T20:09:10.086Z,9.32
2022-09-10T20:11:37.290Z,9.50
2022-09-10T20:14:21.829Z,8.98
2022-09-10T20:16:48.498Z,9.68
2022-09-10T20:19:18.317Z,8.90
2022-09-10T20:21:47.586Z,9.10
2022-09-10T20:24:14.996Z,10.47
2022-09-10T20:26:43.604Z,10.63
2022-09-10T20:29:12.711Z,8.13
2022-09-10T20:31:41.229Z,7.80
2022-09-10T20:34:10.983Z,10.43
2022-09-10T20:36:42.277Z,9.60
2022-09-10T20:39:11.197Z,11.18
2022-09-10T20:41:39.119Z,11.88
2022-09-10T20:44:06.197Z,9.70
2022-09-10T20:46:34.382Z,7.00
2022-09-10T20:49:04.178Z,7.30
2022-09-10T20:51:36.141Z,8.73
2022-09-10T20:54:03.870Z,7.20
2022-09-10T20:56:30.759Z,7.55
2022-09-10T20:58:57.741Z,9.80
2022-09-10T21:01:26.639Z,7.97
2022-09-10T21:03:57.925Z,6.63
2022-09-10T21:06:30.059Z,9.77
2022-09-10T21:08:57.283Z,8.95
2022-09-10T21:11:25.977Z,8.57
2022-09-10T21:13:58.223Z,8.00
2022-09-10T21:16:30.032Z,12.73
2022-09-10T21:19:02.084Z,7.85
2022-09-10T21:21:34.085Z,9.80
2022-09-10T21:24:02.760Z,10.52
2022-09-10T21:26:39.236Z,10.10
2022-09-10T21:29:10.773Z,8.20
2022-09-10T21:31:37.581Z,8.75
2022-09-10T21:34:06.027Z,8.38
2022-09-10T21:36:35.208Z,9.00
2022-09-10T21:39:04.126Z,8.48
2022-09-10T21:41:39.853Z,7.57
2022-09-10T21:44:22.031Z,9.93
2022-09-10T21:46:49.884Z,8.75
2022-09-10T21:49:17.333Z,8.38
2022-09-10T21:51:44.514Z,8.57
2022-09-10T21:54:18.502Z,9.48
2022-09-10T21:56:45.349Z,8.45
2022-09-10T21:59:13.039Z,10.02
2022-09-10T22:01:42.037Z,7.15
2022-09-10T22:04:09.086Z,9.75
2022-09-10T22:06:36.188Z,8.00
2022-09-10T22:09:09.681Z,7.68
2022-09-10T22:11:42.304Z,9.68
2022-09-10T22:14:14.082Z,10.25
2022-09-10T22:16:40.987Z,7.60
2022-09-10T22:19:11.041Z,10.35
2022-09-10T22:21:40.963Z,8.82
2022-09-10T22:24:10.753Z,9.27
2022-09-10T22:26:42.345Z,8.20
2022-09-10T22:29:09.539Z,9.50
2022-09-10T22:31:36.504Z,9.35
2022-09-10T22:34:06.327Z,9.82
2022-09-10T22:36:35.450Z,11.27
2022-09-10T22:39:14.751Z,6.90
2022-09-10T22:41:41.968Z,9.70
2022-09-10T22:44:08.897Z,8.68
2022-09-10T22:46:36.806Z,10.15
2022-09-10T22:49:04.051Z,8.05
2022-09-10T22:51:36.982Z,8.18
2022-09-10T22:54:05.206Z,7.47
2022-09-10T22:56:32.086Z,7.80
2022-09-10T22:58:59.615Z,9.10
2022-09-10T23:01:33.971Z,10.65
2022-09-10T23:04:02.329Z,11.18
2022-09-10T23:06:32.809Z,9.48
2022-09-10T23:09:15.025Z,12.20
2022-09-10T23:11:43.957Z,8.98
2022-09-10T23:14:17.605Z,8.98
2022-09-10T23:16:48.395Z,8.57
2022-09-10T23:19:18.768Z,8.75
2022-09-10T23:24:15.800Z,8.73
2022-09-10T23:26:43.537Z,9.23
2022-09-10T23:29:10.974Z,7.90
2022-09-10T23:31:39.431Z,12.10
2022-09-10T23:34:09.878Z,10.88
2022-09-10T23:36:39.413Z,8.88
2022-09-10T23:39:17.529Z,10.15
2022-09-10T23:41:44.308Z,10.15
2022-09-10T23:44:10.914Z,9.07
2022-09-10T23:46:37.886Z,8.65
2022-09-10T23:49:05.412Z,8.57
2022-09-10T23:51:32.036Z,9.18
2022-09-10T23:53:59.386Z,8.30
2022-09-10T23:56:26.868Z,8.40
2022-09-10T23:58:53.605Z,7.70
